Time;durP1;ratioP1;P1;durP2;ratioP2;P2;SDS_P1;SDS_P2;PMS_P1;PMS_P2;Temp;Humidity;BMP_temperature;BMP_pressure;BME280_temperature;BME280_humidity;BME280_pressure;Samples;Min_cycle;Max_cycle;Signal;HPM_P1;HPM_P2
2023/09/03 00:01:44;;;;;;;26.63;23.63;;;;;;;14.55;100.00;102434.09;5028963;28;20702;-84
2023/09/03 00:04:10;;;;;;;26.00;23.40;;;;;;;14.49;100.00;102434.50;5028839;28;20146;-84
2023/09/03 00:06:36;;;;;;;24.40;22.13;;;;;;;14.49;100.00;102435.34;5029061;28;20083;-84
2023/09/03 00:09:04;;;;;;;25.65;22.90;;;;;;;14.47;100.00;102436.41;5025374;28;20030;-84
2023/09/03 00:11:29;;;;;;;27.23;24.65;;;;;;;14.48;100.00;102435.44;5027712;28;20035;-84
2023/09/03 00:13:55;;;;;;;27.95;25.02;;;;;;;14.43;100.00;102435.75;5028729;28;20392;-84
2023/09/03 00:16:20;;;;;;;26.58;23.95;;;;;;;14.38;100.00;102435.13;5028389;28;20118;-84
2023/09/03 00:18:47;;;;;;;25.92;23.23;;;;;;;14.36;100.00;102432.59;5029155;28;20025;-85
2023/09/03 00:21:13;;;;;;;24.92;22.50;;;;;;;14.35;100.00;102422.94;5028650;28;20036;-84
2023/09/03 00:23:38;;;;;;;26.90;24.35;;;;;;;14.34;100.00;102423.03;5028457;28;20397;-84
2023/09/03 00:26:04;;;;;;;25.55;22.88;;;;;;;14.31;100.00;102424.09;5021546;28;20135;-85
2023/09/03 00:28:30;;;;;;;25.20;22.63;;;;;;;14.27;100.00;102432.34;5029161;28;20057;-84
2023/09/03 00:31:05;;;;;;;25.88;23.63;;;;;;;14.30;100.00;102442.72;5029007;28;20036;-85
2023/09/03 00:33:32;;;;;;;26.52;23.83;;;;;;;14.27;100.00;102441.13;5028895;28;20029;-85
2023/09/03 00:35:58;;;;;;;25.88;23.13;;;;;;;14.24;100.00;102446.63;5029095;28;20161;-84
2023/09/03 00:38:23;;;;;;;24.92;22.38;;;;;;;14.24;100.00;102441.31;5027579;28;20036;-84
2023/09/03 00:40:50;;;;;;;25.42;22.95;;;;;;;14.25;100.00;102447.47;5026861;28;20482;-84
2023/09/03 00:43:16;;;;;;;25.10;22.77;;;;;;;14.25;100.00;102450.13;5026628;28;20087;-85
2023/09/03 00:45:46;;;;;;;26.90;24.25;;;;;;;14.30;100.00;102462.13;5042463;28;20517;-85
2023/09/03 00:48:15;;;;;;;25.67;23.17;;;;;;;14.29;100.00;102460.41;5029307;28;20029;-84
2023/09/03 00:50:45;;;;;;;25.65;23.05;;;;;;;14.23;100.00;102457.31;5027721;28;20389;-85
2023/09/03 00:53:12;;;;;;;25.00;22.70;;;;;;;14.26;100.00;102463.25;5028179;28;20033;-84
2023/09/03 00:55:40;;;;;;;25.67;22.98;;;;;;;14.20;100.00;102465.44;5027999;28;20025;-85
2023/09/03 00:58:09;;;;;;;25.73;23.13;;;;;;;14.23;100.00;102462.59;5029041;28;20021;-84
2023/09/03 01:00:36;;;;;;;25.92;23.38;;;;;;;14.19;100.00;102461.94;5025479;28;20025;-85
2023/09/03 01:03:04;;;;;;;27.40;24.40;;;;;;;14.19;100.00;102453.16;5027984;28;20033;-85
2023/09/03 01:05:30;;;;;;;26.25;23.58;;;;;;;14.19;100.00;102448.72;5027737;28;20052;-85
2023/09/03 01:07:59;;;;;;;26.13;23.42;;;;;;;14.17;100.00;102463.84;5026666;28;20068;-85
2023/09/03 01:10:34;;;;;;;27.17;24.42;;;;;;;14.19;100.00;102475.19;5028257;28;20029;-85
2023/09/03 01:13:12;;;;;;;26.58;23.88;;;;;;;14.20;100.00;102478.69;5025273;28;20025;-85
2023/09/03 01:15:42;;;;;;;26.13;23.50;;;;;;;14.18;100.00;102475.28;5026293;28;20080;-85
2023/09/03 01:18:18;;;;;;;25.73;23.02;;;;;;;14.15;100.00;102472.84;5029320;28;20022;-85
2023/09/03 01:21:22;;;;;;;23.65;21.45;;;;;;;14.17;100.00;102461.19;5028896;28;20862;-85
2023/09/03 01:24:08;;;;;;;23.65;21.17;;;;;;;14.14;100.00;102466.69;5016294;28;20048;-85
2023/09/03 01:27:00;;;;;;;24.52;22.00;;;;;;;14.14;100.00;102465.84;5028737;28;20033;-85
2023/09/03 01:29:26;;;;;;;22.70;20.45;;;;;;;14.06;100.00;102464.53;5016324;28;20040;-85
2023/09/03 01:31:54;;;;;;;22.73;20.52;;;;;;;14.05;100.00;102464.63;5031570;28;20041;-85
2023/09/03 01:34:20;;;;;;;22.70;20.52;;;;;;;14.06;100.00;102468.97;5031171;28;20040;-86
2023/09/03 01:36:46;;;;;;;23.90;21.02;;;;;;;14.07;100.00;102457.44;5032430;28;20557;-86
2023/09/03 01:39:11;;;;;;;22.42;20.25;;;;;;;14.03;100.00;102467.38;5031352;28;20164;-85
2023/09/03 01:41:40;;;;;;;22.52;19.60;;;;;;;13.99;100.00;102467.63;5031468;28;20029;-86
2023/09/03 01:44:05;;;;;;;24.33;20.73;;;;;;;13.97;100.00;102458.94;5033873;28;20025;-85
2023/09/03 01:46:42;;;;;;;22.50;20.27;;;;;;;13.97;100.00;102469.53;5033617;28;20507;-86
2023/09/03 01:49:58;;;;;;;23.33;20.42;;;;;;;14.01;100.00;102465.78;5026086;28;20485;-87
2023/09/03 01:52:38;;;;;;;21.40;19.40;;;;;;;13.95;100.00;102469.63;5013808;28;20029;-86
2023/09/03 01:55:09;;;;;;;21.23;18.77;;;;;;;13.82;100.00;102465.19;5007235;28;20125;-86
2023/09/03 01:57:41;;;;;;;20.35;18.35;;;;;;;13.82;100.00;102462.56;5021982;28;20037;-86
2023/09/03 02:00:18;;;;;;;22.17;20.10;;;;;;;13.80;100.00;102468.78;5032744;28;20030;-86
2023/09/03 02:02:46;;;;;;;21.65;18.38;;;;;;;13.76;100.00;102474.38;5030683;28;20790;-86
2023/09/03 02:05:13;;;;;;;20.70;18.70;;;;;;;13.76;100.00;102467.28;5029613;28;20025;-86
2023/09/03 02:07:38;;;;;;;20.85;18.65;;;;;;;13.73;100.00;102467.47;5015853;28;20059;-86
2023/09/03 02:10:04;;;;;;;21.73;19.48;;;;;;;13.70;100.00;102466.81;5031324;28;20069;-86
2023/09/03 02:12:29;;;;;;;20.30;18.23;;;;;;;13.69;100.00;102470.41;5030979;28;20508;-86
2023/09/03 02:14:55;;;;;;;20.85;18.65;;;;;;;13.69;100.00;102476.53;5031929;28;20036;-86
2023/09/03 02:17:20;;;;;;;20.50;18.55;;;;;;;13.62;100.00;102485.78;5032392;28;20112;-86
2023/09/03 02:19:50;;;;;;;21.10;19.10;;;;;;;13.59;100.00;102493.03;5030153;28;20124;-86
2023/09/03 02:22:16;;;;;;;22.63;20.42;;;;;;;13.59;100.00;102491.25;5019805;28;20022;-86
2023/09/03 02:24:44;;;;;;;23.40;21.15;;;;;;;13.59;100.00;102496.53;5043623;28;20032;-86
2023/09/03 02:27:10;;;;;;;21.85;19.73;;;;;;;13.56;100.00;102496.72;5031452;28;20100;-86
2023/09/03 02:29:40;;;;;;;21.50;19.45;;;;;;;13.54;100.00;102506.53;5046591;28;20033;-86
2023/09/03 02:32:06;;;;;;;22.10;19.63;;;;;;;13.50;100.00;102502.38;5067636;28;20615;-86
2023/09/03 02:34:31;;;;;;;21.92;19.83;;;;;;;13.49;100.00;102505.97;5035653;28;20052;-86
2023/09/03 02:36:56;;;;;;;21.33;19.40;;;;;;;13.48;100.00;102501.63;5046252;28;20026;-86
2023/09/03 02:39:22;;;;;;;21.08;19.13;;;;;;;13.48;100.00;102509.56;5025936;28;20525;-85
2023/09/03 02:41:48;;;;;;;21.40;19.40;;;;;;;13.46;100.00;102508.78;5031565;28;20481;-86
2023/09/03 02:44:13;;;;;;;23.52;21.17;;;;;;;13.44;100.00;102505.38;5031200;28;20032;-85
2023/09/03 02:46:38;;;;;;;22.67;20.40;;;;;;;13.41;100.00;102505.56;5030868;28;20029;-86
2023/09/03 02:49:04;;;;;;;22.05;19.92;;;;;;;13.43;100.00;102493.13;5031397;28;20665;-86
2023/09/03 02:51:29;;;;;;;22.73;20.33;;;;;;;13.39;100.00;102483.66;5030620;28;20176;-86
2023/09/03 02:53:55;;;;;;;21.75;19.75;;;;;;;13.41;100.00;102481.78;5034367;28;20066;-86
2023/09/03 02:56:22;;;;;;;21.80;19.50;;;;;;;13.36;100.00;102483.84;5032292;28;20026;-85
2023/09/03 02:58:48;;;;;;;21.73;19.63;;;;;;;13.36;100.00;102483.84;5012104;28;20100;-86
2023/09/03 03:01:16;;;;;;;20.95;18.90;;;;;;;13.32;100.00;102488.47;5021668;28;20025;-86
2023/09/03 03:03:45;;;;;;;21.23;19.02;;;;;;;13.34;100.00;102491.03;5030913;28;20036;-85
2023/09/03 03:06:11;;;;;;;20.92;18.75;;;;;;;13.36;100.00;102495.28;5028626;28;20036;-86
2023/09/03 03:08:36;;;;;;;20.88;18.90;;;;;;;13.30;100.00;102495.66;5029888;28;20033;-85
2023/09/03 03:11:10;;;;;;;20.83;18.83;;;;;;;13.27;100.00;102498.47;5031826;28;20029;-85
2023/09/03 03:13:38;;;;;;;21.98;19.73;;;;;;;13.28;100.00;102501.97;5023618;28;20129;-86
2023/09/03 03:16:08;;;;;;;21.70;19.67;;;;;;;13.26;100.00;102509.13;5028116;28;20026;-86
2023/09/03 03:18:36;;;;;;;23.88;21.52;;;;;;;13.30;100.00;102511.50;5030482;28;20497;-86
2023/09/03 03:21:20;;;;;;;24.40;21.98;;;;;;;13.32;100.00;102517.56;5029146;28;20029;-86
2023/09/03 03:23:47;;;;;;;22.80;20.40;;;;;;;13.23;100.00;102490.81;5030800;28;20029;-85
2023/09/03 03:26:13;;;;;;;22.60;19.92;;;;;;;13.27;100.00;102481.75;5030827;28;20087;-86
2023/09/03 03:28:38;;;;;;;22.23;20.05;;;;;;;13.23;100.00;102464.38;5036188;28;20021;-86
2023/09/03 03:31:11;;;;;;;23.30;21.05;;;;;;;13.27;100.00;102460.63;5043966;28;20541;-85
2023/09/03 03:33:39;;;;;;;22.38;20.02;;;;;;;13.24;100.00;102459.00;5030112;28;20033;-86
2023/09/03 03:36:06;;;;;;;22.70;20.60;;;;;;;13.25;100.00;102460.72;5030363;28;20068;-86
2023/09/03 03:38:32;;;;;;;23.15;20.98;;;;;;;13.24;100.00;102460.78;5028765;28;20017;-86
2023/09/03 03:41:08;;;;;;;22.98;20.67;;;;;;;13.24;100.00;102463.44;5030191;28;20033;-86
2023/09/03 03:43:40;;;;;;;22.48;20.48;;;;;;;13.20;100.00;102483.03;5030898;28;20030;-86
2023/09/03 03:46:06;;;;;;;22.13;20.10;;;;;;;13.23;100.00;102498.75;5028672;28;20045;-86
2023/09/03 03:48:32;;;;;;;22.45;20.30;;;;;;;13.19;100.00;102500.69;5025605;28;20099;-86
2023/09/03 03:50:58;;;;;;;23.95;21.52;;;;;;;13.20;100.00;102505.03;5028975;28;20037;-86
2023/09/03 03:53:23;;;;;;;22.10;20.02;;;;;;;13.19;100.00;102503.34;5028592;28;20033;-86
2023/09/03 03:55:58;;;;;;;23.60;21.20;;;;;;;13.21;100.00;102511.16;5048773;28;20031;-86
2023/09/03 03:58:25;;;;;;;21.83;19.83;;;;;;;13.20;100.00;102509.47;5050446;28;20384;-86
2023/09/03 04:00:50;;;;;;;20.58;18.60;;;;;;;13.15;100.00;102501.78;5049838;28;20099;-86
2023/09/03 04:03:16;;;;;;;20.90;18.80;;;;;;;13.14;100.00;102494.78;5045199;28;20113;-86
2023/09/03 04:05:44;;;;;;;22.42;20.17;;;;;;;13.10;100.00;102509.13;5024979;28;20034;-86
2023/09/03 04:08:10;;;;;;;20.58;18.50;;;;;;;13.08;100.00;102505.72;5027731;28;20525;-86
2023/09/03 04:10:35;;;;;;;21.10;19.13;;;;;;;13.10;100.00;102507.34;5020612;28;20075;-87
2023/09/03 04:13:00;;;;;;;24.40;20.77;;;;;;;13.03;100.00;102513.91;5027878;28;20476;-86
2023/09/03 04:15:25;;;;;;;23.45;20.95;;;;;;;13.04;100.00;102520.06;5029905;28;20056;-86
2023/09/03 04:17:51;;;;;;;20.88;19.08;;;;;;;13.04;100.00;102522.69;5030115;28;20022;-86
2023/09/03 04:20:16;;;;;;;23.50;21.10;;;;;;;12.98;100.00;102530.97;5026840;28;20025;-86
2023/09/03 04:22:42;;;;;;;22.90;20.60;;;;;;;12.98;100.00;102531.81;5026000;28;20779;-87
2023/09/03 04:25:10;;;;;;;23.55;21.15;;;;;;;12.96;100.00;102538.16;5012270;28;20025;-86
2023/09/03 04:27:35;;;;;;;22.48;20.45;;;;;;;12.95;100.00;102531.16;5011211;28;20470;-86
2023/09/03 04:30:03;;;;;;;23.83;21.48;;;;;;;12.95;100.00;102528.50;5036888;28;20583;-86
2023/09/03 04:32:28;;;;;;;23.48;21.25;;;;;;;12.98;100.00;102521.25;5029650;28;20053;-86
2023/09/03 04:34:54;;;;;;;23.65;21.00;;;;;;;12.97;100.00;102529.28;5028562;28;20457;-86
2023/09/03 04:37:19;;;;;;;23.00;20.60;;;;;;;12.89;100.00;102537.66;5028837;28;20160;-86
2023/09/03 04:39:44;;;;;;;22.65;20.45;;;;;;;12.85;100.00;102544.03;5029345;28;20430;-86
2023/09/03 04:42:10;;;;;;;21.67;19.50;;;;;;;12.87;100.00;102547.44;5027402;28;20025;-86
2023/09/03 04:44:37;;;;;;;22.73;20.42;;;;;;;12.87;100.00;102544.81;5029985;28;20441;-86
2023/09/03 04:47:05;;;;;;;22.30;20.15;;;;;;;12.87;100.00;102547.44;5029411;28;20071;-86
2023/09/03 04:49:32;;;;;;;22.25;20.25;;;;;;;12.85;100.00;102546.69;5030046;28;20029;-86
2023/09/03 04:51:58;;;;;;;21.63;19.65;;;;;;;12.85;100.00;102550.19;5028815;28;20075;-86
2023/09/03 04:54:23;;;;;;;22.13;19.85;;;;;;;12.89;100.00;102556.13;5034005;28;20473;-86
2023/09/03 04:56:49;;;;;;;20.52;18.73;;;;;;;12.89;100.00;102557.94;5048288;28;20473;-86
2023/09/03 04:59:14;;;;;;;20.92;19.02;;;;;;;12.87;100.00;102550.09;5037325;28;20021;-86
2023/09/03 05:01:42;;;;;;;21.17;19.23;;;;;;;12.89;100.00;102555.28;5013448;28;20022;-86
2023/09/03 05:04:10;;;;;;;21.67;19.58;;;;;;;12.85;100.00;102562.53;5028930;28;20025;-86
2023/09/03 05:06:35;;;;;;;21.33;19.27;;;;;;;12.88;100.00;102566.78;5028111;28;20076;-86
2023/09/03 05:09:01;;;;;;;20.75;18.88;;;;;;;12.87;100.00;102571.22;5027776;28;20947;-86
2023/09/03 05:11:26;;;;;;;24.33;19.38;;;;;;;12.91;100.00;102561.34;5028686;28;20035;-86
2023/09/03 05:13:51;;;;;;;21.65;18.23;;;;;;;12.91;100.00;102566.63;5027820;28;20032;-86
2023/09/03 05:16:17;;;;;;;21.85;19.40;;;;;;;12.89;100.00;102574.63;5026081;28;20386;-86
2023/09/03 05:18:42;;;;;;;21.10;19.08;;;;;;;12.89;100.00;102574.63;5021210;28;20022;-86
2023/09/03 05:21:11;;;;;;;21.35;19.23;;;;;;;12.87;100.00;102576.50;5026313;28;20504;-86
2023/09/03 05:23:39;;;;;;;20.67;18.63;;;;;;;12.90;100.00;102576.34;5010977;28;20017;-86
2023/09/03 05:26:04;;;;;;;21.70;19.58;;;;;;;12.97;100.00;102576.84;5026994;28;20033;-86
2023/09/03 05:28:32;;;;;;;21.00;19.20;;;;;;;13.00;100.00;102582.81;5034355;28;20029;-86
2023/09/03 05:30:57;;;;;;;22.42;20.40;;;;;;;13.03;100.00;102592.34;5049116;28;20039;-86
2023/09/03 05:33:26;;;;;;;24.08;21.48;;;;;;;13.00;100.00;102595.16;5046279;28;20017;-86
2023/09/03 05:35:51;;;;;;;23.35;21.02;;;;;;;12.94;100.00;102592.88;5040088;28;20045;-86
2023/09/03 05:38:16;;;;;;;23.92;21.52;;;;;;;12.94;100.00;102593.72;5039536;28;20061;-86
2023/09/03 05:40:42;;;;;;;23.98;21.45;;;;;;;12.97;100.00;102593.53;5009372;28;20041;-86
2023/09/03 05:43:10;;;;;;;23.73;21.30;;;;;;;13.02;100.00;102596.78;5039906;28;20025;-86
2023/09/03 05:45:44;;;;;;;22.90;20.38;;;;;;;13.02;100.00;102588.84;5009984;28;20052;-86
2023/09/03 05:48:09;;;;;;;22.67;19.73;;;;;;;13.06;100.00;102595.66;5009067;28;20447;-85
2023/09/03 05:50:34;;;;;;;23.15;20.45;;;;;;;13.12;100.00;102592.66;5010287;28;20034;-85
2023/09/03 05:53:00;;;;;;;24.77;22.17;;;;;;;13.13;100.00;102583.81;5015813;28;20042;-85
2023/09/03 05:55:25;;;;;;;23.90;21.65;;;;;;;13.17;100.00;102588.00;5039809;28;20075;-85
2023/09/03 05:57:53;;;;;;;23.90;21.48;;;;;;;13.24;100.00;102592.97;5028028;28;20105;-86
2023/09/03 06:00:18;;;;;;;24.77;22.38;;;;;;;13.27;100.00;102596.28;5025086;28;20125;-86
2023/09/03 06:02:44;;;;;;;25.00;22.45;;;;;;;13.32;100.00;102606.59;5027691;28;20454;-86
2023/09/03 06:05:10;;;;;;;25.63;22.65;;;;;;;13.32;100.00;102604.78;5029050;28;20029;-86
2023/09/03 06:07:35;;;;;;;26.08;23.42;;;;;;;13.35;100.00;102617.00;5026803;28;20083;-86
2023/09/03 06:10:01;;;;;;;24.92;22.35;;;;;;;13.33;100.00;102619.72;5020888;28;20975;-86
2023/09/03 06:12:26;;;;;;;26.38;23.88;;;;;;;13.35;100.00;102620.47;5028784;28;20029;-86
2023/09/03 06:14:51;;;;;;;25.30;22.67;;;;;;;13.45;100.00;102620.78;5030361;28;20083;-86
2023/09/03 06:17:17;;;;;;;24.73;22.23;;;;;;;13.52;100.00;102608.91;5030435;28;20449;-86
2023/09/03 06:19:42;;;;;;;26.55;24.08;;;;;;;13.52;100.00;102618.66;5031473;28;20040;-86
2023/09/03 06:22:08;;;;;;;25.75;23.25;;;;;;;13.61;100.00;102621.63;5030004;28;20018;-86
2023/09/03 06:24:33;;;;;;;25.88;23.40;;;;;;;13.68;100.00;102616.81;5030224;28;20028;-86
2023/09/03 06:26:59;;;;;;;26.48;23.95;;;;;;;13.71;100.00;102638.66;5012664;28;20060;-86
2023/09/03 06:29:26;;;;;;;26.13;23.67;;;;;;;13.75;100.00;102645.47;5037465;28;20527;-86
2023/09/03 06:31:51;;;;;;;27.75;24.70;;;;;;;13.84;100.00;102651.16;5035375;28;20037;-86
2023/09/03 06:34:16;;;;;;;28.67;25.80;;;;;;;13.91;100.00;102656.00;5031039;28;20486;-86
2023/09/03 06:36:42;;;;;;;30.52;27.50;;;;;;;13.96;100.00;102671.59;5030052;28;20102;-86
2023/09/03 06:39:10;;;;;;;30.27;27.30;;;;;;;13.99;100.00;102663.47;5035405;28;20021;-86
2023/09/03 06:41:36;;;;;;;33.28;29.75;;;;;;;14.01;100.00;102666.91;5029100;28;20032;-86
2023/09/03 06:44:02;;;;;;;32.28;28.88;;;;;;;14.04;100.00;102667.59;5038095;28;20032;-86
2023/09/03 06:46:27;;;;;;;31.35;28.13;;;;;;;14.10;100.00;102672.50;5023528;28;20029;-84
2023/09/03 06:48:53;;;;;;;33.28;30.08;;;;;;;14.11;100.00;102673.34;5024204;28;20021;-85
2023/09/03 06:51:18;;;;;;;35.25;31.85;;;;;;;14.11;100.00;102673.34;5044486;28;20088;-85
2023/09/03 06:53:43;;;;;;;34.95;31.52;;;;;;;14.13;100.00;102682.06;5026818;28;20056;-86
2023/09/03 06:56:12;;;;;;;35.17;31.77;;;;;;;14.16;100.00;102671.28;5022096;28;20025;-85
2023/09/03 06:58:40;;;;;;;35.63;32.03;;;;;;;14.22;100.00;102688.59;5023940;28;20022;-86
2023/09/03 07:01:07;;;;;;;37.10;33.30;;;;;;;14.28;100.00;102689.06;5020917;28;20034;-86
2023/09/03 07:03:32;;;;;;;35.35;32.03;;;;;;;14.36;100.00;102678.00;5022868;28;20033;-86
2023/09/03 07:05:58;;;;;;;34.97;31.58;;;;;;;14.44;100.00;102685.56;5027845;28;20084;-86
2023/09/03 07:08:24;;;;;;;34.10;30.80;;;;;;;14.51;100.00;102674.47;5031411;28;20029;-85
2023/09/03 07:10:49;;;;;;;32.05;28.90;;;;;;;14.61;100.00;102680.91;5030166;28;20048;-86
2023/09/03 07:13:15;;;;;;;32.25;29.15;;;;;;;14.69;100.00;102685.72;5029230;28;20025;-85
2023/09/03 07:15:40;;;;;;;31.52;28.30;;;;;;;14.78;100.00;102687.81;5031610;28;20013;-85
2023/09/03 07:18:06;;;;;;;30.75;27.75;;;;;;;14.83;100.00;102696.34;5024173;28;20022;-86
2023/09/03 07:20:31;;;;;;;31.27;28.27;;;;;;;14.97;100.00;102698.13;5044014;28;20587;-86
2023/09/03 07:22:56;;;;;;;30.23;27.42;;;;;;;15.13;100.00;102698.00;5029611;28;20039;-86
2023/09/03 07:25:22;;;;;;;29.92;27.05;;;;;;;15.28;100.00;102695.22;5029070;28;20104;-83
2023/09/03 07:27:48;;;;;;;28.35;25.63;;;;;;;15.34;100.00;102705.44;5029592;28;20113;-85
2023/09/03 07:30:13;;;;;;;29.38;26.52;;;;;;;15.46;100.00;102695.84;5048895;28;20034;-84
2023/09/03 07:32:38;;;;;;;28.98;26.17;;;;;;;15.66;100.00;102697.22;5030126;28;20036;-84
2023/09/03 07:35:10;;;;;;;30.35;27.40;;;;;;;15.83;100.00;102704.06;5031588;28;20036;-84
2023/09/03 07:37:35;;;;;;;30.55;27.58;;;;;;;16.11;100.00;102698.63;5029817;28;20044;-85
2023/09/03 07:40:01;;;;;;;29.50;26.67;;;;;;;16.23;100.00;102708.41;5029591;28;20066;-84
2023/09/03 07:42:26;;;;;;;30.02;27.20;;;;;;;16.42;100.00;102709.81;5030039;28;20103;-84
2023/09/03 07:44:52;;;;;;;28.90;26.13;;;;;;;16.63;100.00;102716.28;5030668;28;20128;-83
2023/09/03 07:47:17;;;;;;;28.25;25.42;;;;;;;16.82;100.00;102714.09;5022460;28;20434;-83
2023/09/03 07:49:43;;;;;;;28.77;26.20;;;;;;;17.06;100.00;102716.78;5024267;28;20041;-83
2023/09/03 07:52:09;;;;;;;27.80;25.02;;;;;;;17.09;100.00;102731.69;5044714;28;20028;-83
2023/09/03 07:54:35;;;;;;;28.92;26.15;;;;;;;17.32;100.00;102728.22;5029094;28;20104;-83
2023/09/03 07:57:00;;;;;;;28.50;25.80;;;;;;;17.40;100.00;102722.34;5028478;28;20125;-83
2023/09/03 07:59:28;;;;;;;27.35;24.85;;;;;;;17.58;100.00;102728.13;5028957;28;20045;-84
2023/09/03 08:02:03;;;;;;;25.25;23.05;;;;;;;17.71;100.00;102723.63;5028231;28;20037;-84
2023/09/03 08:04:29;;;;;;;26.88;24.08;;;;;;;17.87;100.00;102716.19;5029263;28;20079;-84
2023/09/03 08:06:57;;;;;;;25.63;23.23;;;;;;;18.10;100.00;102720.66;5028664;28;20037;-83
2023/09/03 08:09:23;;;;;;;24.45;22.30;;;;;;;18.20;100.00;102719.94;5036536;28;20047;-83
2023/09/03 08:11:50;;;;;;;24.95;22.52;;;;;;;18.50;100.00;102717.59;5009972;28;20553;-85
2023/09/03 08:14:22;;;;;;;23.25;21.15;;;;;;;18.54;100.00;102713.72;5027038;28;20033;-84
2023/09/03 08:16:47;;;;;;;23.80;21.48;;;;;;;18.81;100.00;102707.19;5028274;28;20033;-84
2023/09/03 08:19:13;;;;;;;24.08;21.65;;;;;;;18.86;100.00;102711.22;5029232;28;20021;-85
2023/09/03 08:21:47;;;;;;;22.15;20.05;;;;;;;18.95;99.00;102707.81;5027513;28;20033;-86
2023/09/03 08:24:13;;;;;;;22.95;20.60;;;;;;;19.14;99.70;102707.16;5037628;28;20033;-86
2023/09/03 08:26:38;;;;;;;21.65;19.65;;;;;;;19.51;98.99;102701.50;5029588;28;20032;-83
2023/09/03 08:29:04;;;;;;;20.88;18.92;;;;;;;19.55;95.46;102711.00;5027567;28;20108;-83
2023/09/03 08:31:29;;;;;;;20.73;18.73;;;;;;;19.60;93.71;102703.44;5028463;28;20045;-85
2023/09/03 08:33:56;;;;;;;24.48;20.08;;;;;;;19.79;94.74;102711.63;5028465;28;20033;-86
2023/09/03 08:36:22;;;;;;;20.58;18.65;;;;;;;19.88;94.51;102713.53;5025780;28;20087;-85
2023/09/03 08:38:47;;;;;;;20.42;18.42;;;;;;;20.05;92.36;102708.63;5027246;28;20023;-83
2023/09/03 08:41:18;;;;;;;19.00;17.23;;;;;;;20.19;92.35;102713.63;5029744;28;20021;-85
2023/09/03 08:43:46;;;;;;;19.45;17.48;;;;;;;20.46;91.26;102718.47;5016811;28;20124;-85
2023/09/03 08:46:15;;;;;;;20.10;18.13;;;;;;;20.50;88.17;102718.06;5026043;28;20037;-83
2023/09/03 08:48:42;;;;;;;19.20;17.10;;;;;;;20.60;88.81;102710.94;5029514;28;20083;-85
2023/09/03 08:51:11;;;;;;;17.42;15.68;;;;;;;20.92;87.37;102709.97;5030042;28;20029;-85
2023/09/03 08:53:40;;;;;;;16.50;15.00;;;;;;;21.12;84.25;102711.69;5029028;28;20029;-83
2023/09/03 08:56:05;;;;;;;17.25;15.43;;;;;;;21.30;84.33;102714.59;5048987;28;20025;-83
2023/09/03 08:58:33;;;;;;;16.10;14.55;;;;;;;21.43;82.58;102719.69;5046214;28;20055;-84
2023/09/03 09:00:58;;;;;;;15.27;13.88;;;;;;;21.53;82.58;102720.56;5013087;28;20022;-83
2023/09/03 09:03:28;;;;;;;16.63;12.98;;;;;;;21.58;79.61;102720.97;5010133;28;20041;-84
2023/09/03 09:05:54;;;;;;;14.75;13.38;;;;;;;21.53;78.94;102717.88;5010735;28;20033;-84
2023/09/03 09:08:22;;;;;;;15.90;14.40;;;;;;;21.73;81.43;102722.28;5010374;28;20390;-84
2023/09/03 09:10:51;;;;;;;15.90;14.30;;;;;;;21.97;79.79;102723.66;5009910;28;20030;-83
2023/09/03 09:13:24;;;;;;;15.43;13.57;;;;;;;22.00;79.39;102728.72;5009188;28;20120;-84
2023/09/03 09:15:50;;;;;;;15.55;14.07;;;;;;;22.02;78.89;102718.75;5014181;28;20025;-84
2023/09/03 09:18:16;;;;;;;16.13;14.43;;;;;;;22.30;78.90;102717.88;5009942;28;20381;-84
2023/09/03 09:20:46;;;;;;;15.35;13.88;;;;;;;22.56;77.22;102717.25;5010642;28;20029;-83
2023/09/03 09:23:11;;;;;;;13.68;12.43;;;;;;;22.37;73.99;102721.66;5010614;28;20032;-84
2023/09/03 09:25:39;;;;;;;15.23;13.73;;;;;;;22.44;77.00;102711.22;5010395;28;20071;-84
2023/09/03 09:28:11;;;;;;;14.23;12.82;;;;;;;22.33;76.48;102722.94;5030185;28;20084;-84
2023/09/03 09:30:36;;;;;;;13.55;12.15;;;;;;;22.36;75.02;102716.44;5049992;28;20386;-84
2023/09/03 09:33:03;;;;;;;14.13;12.90;;;;;;;22.37;76.81;102715.44;5035806;28;20040;-84
2023/09/03 09:35:29;;;;;;;13.48;12.18;;;;;;;22.45;76.16;102713.75;5029651;28;20900;-83
2023/09/03 09:38:04;;;;;;;10.00;9.00;;;;;;;22.46;76.27;102707.41;5029073;28;20021;-84
2023/09/03 09:40:30;;;;;;;10.23;9.27;;;;;;;22.44;74.19;102704.00;5029460;28;20083;-85
2023/09/03 09:42:57;;;;;;;11.20;10.02;;;;;;;22.35;73.69;102718.28;5029463;28;20025;-84
2023/09/03 09:45:23;;;;;;;10.70;9.20;;;;;;;22.40;72.49;102709.78;5027419;28;20050;-84
2023/09/03 09:48:10;;;;;;;11.88;10.77;;;;;;;22.40;77.17;102710.63;5029632;28;20076;-84
2023/09/03 09:50:40;;;;;;;10.88;9.15;;;;;;;22.28;73.59;102706.44;5017837;28;20528;-85
2023/09/03 09:53:25;;;;;;;11.18;9.10;;;;;;;22.35;76.30;102702.19;5028200;28;20125;-85
2023/09/03 09:56:01;;;;;;;10.57;9.60;;;;;;;22.25;74.25;102696.00;5065696;28;20025;-84
2023/09/03 09:58:40;;;;;;;9.68;8.73;;;;;;;22.29;75.88;102708.13;5052790;28;20021;-85
2023/09/03 10:01:10;;;;;;;11.57;8.73;;;;;;;22.27;71.79;102694.03;5052250;28;20396;-84
2023/09/03 10:03:54;;;;;;;9.88;8.68;;;;;;;22.35;74.85;102696.81;5053328;28;20027;-85
2023/09/03 10:06:21;;;;;;;10.73;9.63;;;;;;;22.32;74.07;102686.38;5030825;28;20022;-84
2023/09/03 10:08:49;;;;;;;10.60;9.30;;;;;;;22.23;72.63;102699.81;5032572;28;20021;-84
2023/09/03 10:11:14;;;;;;;10.25;8.40;;;;;;;22.13;74.23;102697.16;5032670;28;20086;-84
2023/09/03 10:13:41;;;;;;;9.68;7.93;;;;;;;22.27;76.28;102699.38;5033263;28;20052;-84
2023/09/03 10:16:10;;;;;;;9.60;7.95;;;;;;;22.45;74.31;102697.66;5032880;28;20060;-84
2023/09/03 10:18:45;;;;;;;12.00;8.93;;;;;;;22.21;71.47;102699.97;5034826;28;20112;-84
2023/09/03 10:21:12;;;;;;;9.27;7.50;;;;;;;22.29;71.51;102692.03;5031708;28;20029;-84
2023/09/03 10:23:48;;;;;;;9.20;7.85;;;;;;;22.50;73.45;102698.06;5022408;28;20116;-84
2023/09/03 10:26:18;;;;;;;8.05;6.88;;;;;;;22.74;74.31;102691.31;5013709;28;20486;-84
2023/09/03 10:28:47;;;;;;;10.70;8.32;;;;;;;22.71;70.26;102686.25;5042898;28;20162;-85
2023/09/03 10:31:15;;;;;;;9.27;8.13;;;;;;;22.75;69.53;102687.63;5053080;28;20388;-84
2023/09/03 10:33:44;;;;;;;9.57;7.95;;;;;;;22.81;69.45;102684.38;5053015;28;20104;-84
2023/09/03 10:36:17;;;;;;;9.52;7.55;;;;;;;22.79;71.53;102695.25;5051193;28;20068;-85
2023/09/03 10:38:44;;;;;;;8.70;7.75;;;;;;;22.87;69.63;102686.50;5052047;28;20020;-84
2023/09/03 10:41:23;;;;;;;11.82;7.13;;;;;;;23.19;70.71;102694.06;5022905;28;20120;-85
2023/09/03 10:43:54;;;;;;;8.43;7.57;;;;;;;23.20;68.82;102687.69;5027724;28;20026;-84
2023/09/03 10:46:25;;;;;;;8.32;7.05;;;;;;;23.24;66.59;102682.91;5012352;28;20054;-85
2023/09/03 10:48:53;;;;;;;8.98;6.85;;;;;;;23.45;67.82;102692.34;5027040;28;20045;-86
2023/09/03 10:51:32;;;;;;;7.47;6.70;;;;;;;23.66;68.79;102689.41;5013429;28;20112;-84
2023/09/03 10:54:14;;;;;;;6.80;6.10;;;;;;;24.00;69.75;102692.16;5019398;28;20186;-86
2023/09/03 10:57:05;;;;;;;6.70;5.78;;;;;;;24.04;68.44;102695.41;5051119;28;20021;-86
2023/09/03 10:59:58;;;;;;;8.55;5.90;;;;;;;23.87;66.34;102696.28;5020210;28;20042;-84
2023/09/03 11:02:25;;;;;;;7.22;5.50;;;;;;;23.79;64.83;102694.38;5012445;28;20481;-84
2023/09/03 11:05:23;;;;;;;7.10;5.50;;;;;;;23.70;65.41;102698.84;5012109;28;20455;-84
2023/09/03 11:08:31;;;;;;;9.18;5.28;;;;;;;23.71;66.75;102692.47;5011943;28;20053;-84
2023/09/03 11:10:57;;;;;;;7.32;5.90;;;;;;;23.60;63.84;102694.50;5011055;28;20131;-83